Time;durP1;ratioP1;P1;durP2;ratioP2;P2;SDS_P1;SDS_P2;PMS_P1;PMS_P2;Temp;Humidity;BMP_temperature;BMP_pressure;BME280_temperature;BME280_humidity;BME280_pressure;Samples;Min_cycle;Max_cycle;Signal;HPM_P1;HPM_P2
2022/06/19 00:01:40;;;;;;;8.82;5.65;;;;;;;;;;5038309;28;20025;-45
2022/06/19 00:04:07;;;;;;;13.02;5.80;;;;;;;;;;5029740;28;20961;-44
2022/06/19 00:06:35;;;;;;;14.43;6.85;;;;;;;;;;5028214;28;20036;-44
2022/06/19 00:09:02;;;;;;;6.85;5.70;;;;;;;;;;5031056;28;20037;-46
2022/06/19 00:11:28;;;;;;;8.52;5.90;;;;;;;;;;5038240;28;20091;-45
2022/06/19 00:13:54;;;;;;;7.25;5.13;;;;;;;;;;5035457;28;20146;-45
2022/06/19 00:16:20;;;;;;;14.60;5.63;;;;;;;;;;5039043;28;20378;-43
2022/06/19 00:18:46;;;;;;;15.07;6.03;;;;;;;;;;5033018;28;20021;-44
2022/06/19 00:21:15;;;;;;;8.98;5.30;;;;;;;;;;5032939;28;20028;-45
2022/06/19 00:23:42;;;;;;;9.32;5.88;;;;;;;;;;5030174;28;20029;-47
2022/06/19 00:26:08;;;;;;;10.57;5.40;;;;;;;;;;5029995;28;20041;-44
2022/06/19 00:28:33;;;;;;;6.07;5.43;;;;;;;;;;5031088;28;20040;-44
2022/06/19 00:30:59;;;;;;;9.85;5.50;;;;;;;;;;5034484;28;20068;-45
2022/06/19 00:33:25;;;;;;;7.65;5.10;;;;;;;;;;5036197;28;20113;-46
2022/06/19 00:35:51;;;;;;;7.13;5.55;;;;;;;;;;5027005;28;20022;-44
2022/06/19 00:38:16;;;;;;;13.77;5.07;;;;;;;;;;5033527;28;20044;-47
2022/06/19 00:40:42;;;;;;;6.22;5.60;;;;;;;;;;5036098;28;20033;-44
2022/06/19 00:43:08;;;;;;;11.20;5.15;;;;;;;;;;5032782;28;20029;-47
2022/06/19 00:45:39;;;;;;;11.80;5.40;;;;;;;;;;5033979;28;20040;-44
2022/06/19 00:48:28;;;;;;;5.97;5.45;;;;;;;;;;5033853;28;20490;-44
2022/06/19 00:50:54;;;;;;;5.63;5.07;;;;;;;;;;5026682;28;20034;-44
2022/06/19 00:53:30;;;;;;;7.43;5.18;;;;;;;;;;5032211;28;20042;-44
2022/06/19 00:55:56;;;;;;;6.18;5.05;;;;;;;;;;5032224;28;20505;-44
2022/06/19 00:58:38;;;;;;;8.95;5.10;;;;;;;;;;5028898;28;20057;-42
2022/06/19 01:01:08;;;;;;;;;;;;;;;;;;5033132;28;20036;-44
2022/06/19 01:03:58;;;;;;;11.23;4.63;;;;;;;;;;5035558;28;19995;-45
2022/06/19 01:06:26;;;;;;;11.48;5.13;;;;;;;;;;5030329;28;20452;-44
2022/06/19 01:08:52;;;;;;;10.40;5.22;;;;;;;;;;5027736;28;20053;-44
2022/06/19 01:11:20;;;;;;;8.70;4.72;;;;;;;;;;5031227;28;20044;-44
2022/06/19 01:13:47;;;;;;;11.38;5.35;;;;;;;;;;5030791;28;20043;-44
2022/06/19 01:16:14;;;;;;;7.13;4.70;;;;;;;;;;5032483;28;20024;-44
2022/06/19 01:18:41;;;;;;;6.65;5.47;;;;;;;;;;5030268;28;20035;-46
2022/06/19 01:21:15;;;;;;;9.35;5.35;;;;;;;;;;5027907;28;20029;-45
2022/06/19 01:24:21;;;;;;;10.05;4.90;;;;;;;;;;5030612;28;20037;-44
2022/06/19 01:26:50;;;;;;;10.60;4.93;;;;;;;;;;5035097;28;20040;-44
2022/06/19 01:29:17;;;;;;;7.95;4.30;;;;;;;;;;5030426;28;20115;-46
2022/06/19 01:31:45;;;;;;;9.65;5.00;;;;;;;;;;5032512;28;20026;-45
2022/06/19 01:34:29;;;;;;;11.68;4.97;;;;;;;;;;5028659;28;20020;-44
2022/06/19 01:37:20;;;;;;;7.95;5.05;;;;;;;;;;5025070;28;20041;-44
2022/06/19 01:39:54;;;;;;;6.15;4.68;;;;;;;;;;5030896;28;20113;-46
2022/06/19 01:42:20;;;;;;;9.00;4.45;;;;;;;;;;5035149;28;20124;-46
2022/06/19 01:44:47;;;;;;;8.90;4.97;;;;;;;;;;5033953;28;20034;-44
2022/06/19 01:47:14;;;;;;;8.80;4.78;;;;;;;;;;5026274;28;20471;-44
2022/06/19 01:49:45;;;;;;;7.40;4.95;;;;;;;;;;5033574;28;20095;-44
2022/06/19 01:52:11;;;;;;;8.85;4.90;;;;;;;;;;5031465;28;20428;-45
2022/06/19 01:54:41;;;;;;;8.10;5.00;;;;;;;;;;5033863;28;20054;-44
2022/06/19 01:57:09;;;;;;;10.88;4.85;;;;;;;;;;5026521;28;20040;-44
2022/06/19 01:59:37;;;;;;;6.55;5.05;;;;;;;;;;5033816;28;20022;-46
2022/06/19 02:02:06;;;;;;;8.55;4.93;;;;;;;;;;5032813;28;20091;-44
2022/06/19 02:04:32;;;;;;;8.20;5.50;;;;;;;;;;5034636;28;20103;-44
2022/06/19 02:07:02;;;;;;;7.38;5.10;;;;;;;;;;5029265;28;20052;-44
2022/06/19 02:09:28;;;;;;;13.10;5.00;;;;;;;;;;5022328;28;20112;-45
2022/06/19 02:11:55;;;;;;;5.32;4.82;;;;;;;;;;5033147;28;20144;-45
2022/06/19 02:14:21;;;;;;;8.20;5.05;;;;;;;;;;5030113;28;20034;-45
2022/06/19 02:16:48;;;;;;;9.27;4.75;;;;;;;;;;5031916;28;20117;-44
2022/06/19 02:19:17;;;;;;;6.30;4.88;;;;;;;;;;5032960;28;20107;-44
2022/06/19 02:21:46;;;;;;;6.13;5.03;;;;;;;;;;5028554;28;20028;-48
2022/06/19 02:24:15;;;;;;;7.28;4.78;;;;;;;;;;5029078;28;20025;-44
2022/06/19 02:26:43;;;;;;;9.35;4.80;;;;;;;;;;5029136;28;20267;-45
2022/06/19 02:29:10;;;;;;;6.18;4.93;;;;;;;;;;5032871;28;20104;-45
2022/06/19 02:31:38;;;;;;;12.23;4.70;;;;;;;;;;5032859;28;20057;-44
2022/06/19 02:34:12;;;;;;;7.57;4.88;;;;;;;;;;5032553;28;20105;-46
2022/06/19 02:36:44;;;;;;;8.18;4.90;;;;;;;;;;5024904;28;20057;-44
2022/06/19 02:39:25;;;;;;;6.38;4.65;;;;;;;;;;5028709;28;20599;-44
2022/06/19 02:42:24;;;;;;;11.90;5.13;;;;;;;;;;5029323;28;20036;-44
2022/06/19 02:45:02;;;;;;;8.35;5.28;;;;;;;;;;5028203;28;20041;-44
2022/06/19 02:47:32;;;;;;;5.82;4.85;;;;;;;;;;5029869;28;20040;-44
2022/06/19 02:49:57;;;;;;;8.68;4.82;;;;;;;;;;5032850;28;20119;-44
2022/06/19 02:52:23;;;;;;;8.65;5.15;;;;;;;;;;5028335;28;20127;-44
2022/06/19 02:54:49;;;;;;;7.72;4.70;;;;;;;;;;5030677;28;20594;-44
2022/06/19 02:57:16;;;;;;;7.88;4.50;;;;;;;;;;5030498;28;20124;-44
2022/06/19 02:59:42;;;;;;;12.40;5.20;;;;;;;;;;5029509;28;20025;-44
2022/06/19 03:02:09;;;;;;;5.07;4.25;;;;;;;;;;5033111;28;20036;-45
2022/06/19 03:04:38;;;;;;;9.10;4.90;;;;;;;;;;5031411;28;20474;-44
2022/06/19 03:07:04;;;;;;;6.07;5.03;;;;;;;;;;5030070;28;20034;-44
2022/06/19 03:09:30;;;;;;;7.28;5.10;;;;;;;;;;5031558;28;20052;-44
2022/06/19 03:11:56;;;;;;;11.32;4.70;;;;;;;;;;5025855;28;20432;-44
2022/06/19 03:14:23;;;;;;;5.75;4.90;;;;;;;;;;5030554;28;20085;-44
2022/06/19 03:16:49;;;;;;;6.88;4.93;;;;;;;;;;5031775;28;20022;-44
2022/06/19 03:19:14;;;;;;;8.13;4.30;;;;;;;;;;5030091;28;20044;-44
2022/06/19 03:21:40;;;;;;;5.38;4.78;;;;;;;;;;5030166;28;20432;-44
2022/06/19 03:24:06;;;;;;;6.07;4.85;;;;;;;;;;5027059;28;20025;-44
2022/06/19 03:26:31;;;;;;;9.88;4.95;;;;;;;;;;5029558;28;20574;-44
2022/06/19 03:28:58;;;;;;;5.53;5.03;;;;;;;;;;5064046;28;20068;-44
2022/06/19 03:31:25;;;;;;;4.97;4.57;;;;;;;;;;5028379;28;20041;-45
2022/06/19 03:33:52;;;;;;;7.90;5.00;;;;;;;;;;5031096;28;20163;-44
2022/06/19 03:36:18;;;;;;;7.72;4.97;;;;;;;;;;5031095;28;20041;-44
2022/06/19 03:38:44;;;;;;;8.25;4.97;;;;;;;;;;5028260;28;20084;-44
2022/06/19 03:41:10;;;;;;;8.13;4.90;;;;;;;;;;5030503;28;20491;-45
2022/06/19 03:43:36;;;;;;;8.38;4.85;;;;;;;;;;5031666;28;20482;-46
2022/06/19 03:46:12;;;;;;;5.72;5.18;;;;;;;;;;5028598;28;20040;-46
2022/06/19 03:48:46;;;;;;;5.18;4.68;;;;;;;;;;5029768;28;20035;-44
2022/06/19 03:51:12;;;;;;;10.75;4.82;;;;;;;;;;5024840;28;20037;-47
2022/06/19 03:53:38;;;;;;;7.55;5.15;;;;;;;;;;5024874;28;20030;-46
2022/06/19 03:56:06;;;;;;;11.20;5.60;;;;;;;;;;5031176;28;20398;-45
2022/06/19 03:59:07;;;;;;;9.45;5.45;;;;;;;;;;5031546;28;20402;-45
2022/06/19 04:01:32;;;;;;;17.02;5.45;;;;;;;;;;5032541;28;20045;-44
2022/06/19 04:03:58;;;;;;;7.93;5.05;;;;;;;;;;5023649;28;20497;-45
2022/06/19 04:06:28;;;;;;;7.70;4.78;;;;;;;;;;5027550;28;20488;-46
2022/06/19 04:08:54;;;;;;;5.68;5.18;;;;;;;;;;5031062;28;20033;-45
2022/06/19 04:11:22;;;;;;;10.48;4.82;;;;;;;;;;5030532;28;20026;-44
2022/06/19 04:13:56;;;;;;;5.57;4.80;;;;;;;;;;5033897;28;20052;-45
2022/06/19 04:16:43;;;;;;;10.40;4.78;;;;;;;;;;5026620;28;20049;-44
2022/06/19 04:19:28;;;;;;;15.02;4.78;;;;;;;;;;5027488;28;20037;-44
2022/06/19 04:22:14;;;;;;;10.82;4.57;;;;;;;;;;5026764;28;20034;-43
2022/06/19 04:24:59;;;;;;;8.20;5.03;;;;;;;;;;5029911;28;20103;-44
2022/06/19 04:27:45;;;;;;;9.88;4.93;;;;;;;;;;5020024;28;20099;-44
2022/06/19 04:30:30;;;;;;;11.98;5.10;;;;;;;;;;5027285;28;20055;-44
2022/06/19 04:33:18;;;;;;;6.80;5.10;;;;;;;;;;5030318;28;20047;-44
2022/06/19 04:36:03;;;;;;;13.32;5.55;;;;;;;;;;5032845;28;20112;-45
2022/06/19 04:38:28;;;;;;;5.50;4.78;;;;;;;;;;5031659;28;20492;-44
2022/06/19 04:40:54;;;;;;;7.63;4.97;;;;;;;;;;5033125;28;20038;-46
2022/06/19 04:43:20;;;;;;;6.10;4.88;;;;;;;;;;5034579;28;20831;-45
2022/06/19 04:45:46;;;;;;;8.43;4.88;;;;;;;;;;5032851;28;20025;-44
2022/06/19 04:48:11;;;;;;;7.88;4.68;;;;;;;;;;5030069;28;20025;-44
2022/06/19 04:50:36;;;;;;;6.60;4.60;;;;;;;;;;5030568;28;20116;-44
2022/06/19 04:53:02;;;;;;;5.00;4.30;;;;;;;;;;5035314;28;20040;-44
2022/06/19 04:55:28;;;;;;;5.85;4.38;;;;;;;;;;5030720;28;20082;-44
2022/06/19 04:57:53;;;;;;;8.57;4.53;;;;;;;;;;5032105;28;20083;-44
2022/06/19 05:00:20;;;;;;;5.13;4.25;;;;;;;;;;5031131;28;20026;-45
2022/06/19 05:02:51;;;;;;;7.00;4.05;;;;;;;;;;5028452;28;20049;-44
2022/06/19 05:05:19;;;;;;;4.75;4.35;;;;;;;;;;5035465;28;20033;-44
2022/06/19 05:07:45;;;;;;;7.35;4.40;;;;;;;;;;5034137;28;20045;-46
2022/06/19 05:10:11;;;;;;;6.40;4.07;;;;;;;;;;5023649;28;20391;-43
2022/06/19 05:12:37;;;;;;;5.43;4.35;;;;;;;;;;5033492;28;20029;-44
2022/06/19 05:15:04;;;;;;;10.52;4.88;;;;;;;;;;5031116;28;20108;-44
2022/06/19 05:17:29;;;;;;;5.35;4.55;;;;;;;;;;5033721;28;20044;-44
2022/06/19 05:19:55;;;;;;;5.30;4.15;;;;;;;;;;5032170;28;20037;-44
2022/06/19 05:22:20;;;;;;;5.88;4.15;;;;;;;;;;5027836;28;20021;-44
2022/06/19 05:24:46;;;;;;;9.27;4.50;;;;;;;;;;5032103;28;20155;-44
2022/06/19 05:27:11;;;;;;;5.75;4.18;;;;;;;;;;5023385;28;20041;-44
2022/06/19 05:29:38;;;;;;;5.15;4.65;;;;;;;;;;5034838;28;20029;-44
2022/06/19 05:32:04;;;;;;;9.07;5.03;;;;;;;;;;5035514;28;20024;-47
2022/06/19 05:34:31;;;;;;;6.28;4.50;;;;;;;;;;5031959;28;20025;-44
2022/06/19 05:36:57;;;;;;;7.63;4.18;;;;;;;;;;5027840;28;20061;-44
2022/06/19 05:39:22;;;;;;;5.63;4.07;;;;;;;;;;5031261;28;20079;-44
2022/06/19 05:41:48;;;;;;;4.13;3.75;;;;;;;;;;5033385;28;20033;-44
2022/06/19 05:44:15;;;;;;;4.85;4.35;;;;;;;;;;5032814;28;20454;-44
2022/06/19 05:46:44;;;;;;;6.63;4.50;;;;;;;;;;5026253;28;20146;-45
2022/06/19 05:49:09;;;;;;;8.95;4.70;;;;;;;;;;5026974;28;20032;-44
2022/06/19 05:51:35;;;;;;;4.03;3.70;;;;;;;;;;5029824;28;20030;-46
2022/06/19 05:54:00;;;;;;;7.30;4.82;;;;;;;;;;5025275;28;20056;-44
2022/06/19 05:56:27;;;;;;;11.18;4.05;;;;;;;;;;5029566;28;20041;-46
2022/06/19 05:58:52;;;;;;;10.63;4.20;;;;;;;;;;5035522;28;20028;-43
2022/06/19 06:01:20;;;;;;;5.78;4.07;;;;;;;;;;5032674;28;20036;-44
2022/06/19 06:03:46;;;;;;;10.30;4.53;;;;;;;;;;5032927;28;20036;-45
2022/06/19 06:06:17;;;;;;;10.13;4.15;;;;;;;;;;5027187;28;20029;-49
2022/06/19 06:08:43;;;;;;;8.07;4.20;;;;;;;;;;5029552;28;20036;-44
2022/06/19 06:11:09;;;;;;;9.40;4.40;;;;;;;;;;5030458;28;20275;-44
2022/06/19 06:13:35;;;;;;;11.70;4.45;;;;;;;;;;5029874;28;20043;-49
2022/06/19 06:16:01;;;;;;;6.45;4.80;;;;;;;;;;5029187;28;20480;-46
2022/06/19 06:18:27;;;;;;;8.40;4.47;;;;;;;;;;5031258;28;20045;-44
2022/06/19 06:20:57;;;;;;;5.97;4.40;;;;;;;;;;5023744;28;20747;-44
2022/06/19 06:23:24;;;;;;;4.45;4.03;;;;;;;;;;5026889;28;20104;-44
2022/06/19 06:26:11;;;;;;;5.18;4.00;;;;;;;;;;5034243;28;20128;-44
2022/06/19 06:28:39;;;;;;;5.40;4.53;;;;;;;;;;5030166;28;20125;-44
2022/06/19 06:31:05;;;;;;;6.65;4.45;;;;;;;;;;5032435;28;20021;-44
2022/06/19 06:33:31;;;;;;;7.13;4.00;;;;;;;;;;5029773;28;20020;-44
2022/06/19 06:35:57;;;;;;;6.18;4.30;;;;;;;;;;5030889;28;20030;-46
2022/06/19 06:38:24;;;;;;;6.68;4.00;;;;;;;;;;5030311;28;20029;-47
2022/06/19 06:40:50;;;;;;;5.72;3.85;;;;;;;;;;5027530;28;20557;-44
2022/06/19 06:43:16;;;;;;;8.30;3.95;;;;;;;;;;5032721;28;20033;-45
2022/06/19 06:45:41;;;;;;;6.95;3.97;;;;;;;;;;5035003;28;20116;-45
2022/06/19 06:48:07;;;;;;;8.32;3.88;;;;;;;;;;5024670;28;20060;-44
2022/06/19 06:50:34;;;;;;;8.27;4.00;;;;;;;;;;5028359;28;20025;-45
2022/06/19 06:52:59;;;;;;;5.65;3.50;;;;;;;;;;5017913;28;20267;-45
2022/06/19 06:55:25;;;;;;;4.38;3.80;;;;;;;;;;5017986;28;20782;-45
2022/06/19 06:58:10;;;;;;;10.57;3.70;;;;;;;;;;5020331;28;20045;-46
2022/06/19 07:00:36;;;;;;;9.02;4.10;;;;;;;;;;5020516;28;20044;-46
2022/06/19 07:03:03;;;;;;;4.55;3.72;;;;;;;;;;5021974;28;20025;-46
2022/06/19 07:05:29;;;;;;;8.38;3.70;;;;;;;;;;5029303;28;20075;-44
2022/06/19 07:07:54;;;;;;;6.57;3.30;;;;;;;;;;5036680;28;20465;-46
2022/06/19 07:10:20;;;;;;;6.70;3.40;;;;;;;;;;5018125;28;20052;-49
2022/06/19 07:12:47;;;;;;;17.60;3.35;;;;;;;;;;5017224;28;20839;-48
2022/06/19 07:15:14;;;;;;;10.18;3.17;;;;;;;;;;5014051;28;20025;-44
2022/06/19 07:17:39;;;;;;;6.00;2.60;;;;;;;;;;5018012;28;20025;-44
2022/06/19 07:20:06;;;;;;;9.45;2.78;;;;;;;;;;5014845;28;20032;-44
2022/06/19 07:22:32;;;;;;;6.72;2.50;;;;;;;;;;5024866;28;20053;-45
2022/06/19 07:24:58;;;;;;;8.30;2.50;;;;;;;;;;5019675;28;20038;-45
2022/06/19 07:27:24;;;;;;;7.03;2.67;;;;;;;;;;5015390;28;20101;-44
2022/06/19 07:29:51;;;;;;;127.15;6.00;;;;;;;;;;5017726;28;20124;-46
2022/06/19 07:32:18;;;;;;;13.32;2.75;;;;;;;;;;5019726;28;20029;-46
2022/06/19 07:34:43;;;;;;;4.82;2.47;;;;;;;;;;5027365;28;20024;-45
2022/06/19 07:37:13;;;;;;;10.55;2.78;;;;;;;;;;5016783;28;20502;-45
2022/06/19 07:39:39;;;;;;;4.93;2.45;;;;;;;;;;5014553;28;20627;-47
2022/06/19 07:42:08;;;;;;;3.45;2.50;;;;;;;;;;5019275;28;20481;-45
2022/06/19 07:44:38;;;;;;;7.75;2.85;;;;;;;;;;5013627;28;20029;-45
2022/06/19 07:50:10;;;;;;;7.85;2.53;;;;;;;;;;5025820;28;20124;-45
2022/06/19 07:52:40;;;;;;;13.90;3.28;;;;;;;;;;5028935;28;20077;-45
2022/06/19 07:55:09;;;;;;;3.33;2.70;;;;;;;;;;5022995;28;20072;-47
2022/06/19 07:57:35;;;;;;;5.22;2.72;;;;;;;;;;5020258;28;20517;-45
2022/06/19 08:00:01;;;;;;;3.25;2.42;;;;;;;;;;5014594;28;20161;-45
2022/06/19 08:02:32;;;;;;;3.13;2.40;;;;;;;;;;5008533;28;20030;-47
2022/06/19 08:04:58;;;;;;;4.28;2.50;;;;;;;;;;5008573;28;20038;-46
2022/06/19 08:07:23;;;;;;;4.35;2.67;;;;;;;;;;5012282;28;20034;-45
2022/06/19 08:09:50;;;;;;;8.35;2.85;;;;;;;;;;5019678;28;20395;-45
2022/06/19 08:12:15;;;;;;;3.05;2.75;;;;;;;;;;5024306;28;20390;-46
2022/06/19 08:14:41;;;;;;;5.20;2.67;;;;;;;;;;5024826;28;20048;-47
2022/06/19 08:17:07;;;;;;;5.13;2.80;;;;;;;;;;5024215;28;20036;-45
2022/06/19 08:19:33;;;;;;;9.63;2.80;;;;;;;;;;5025040;28;20020;-48
2022/06/19 08:21:59;;;;;;;4.80;2.33;;;;;;;;;;5025913;28;20041;-47
2022/06/19 08:24:24;;;;;;;7.13;2.60;;;;;;;;;;5020213;28;20497;-45
2022/06/19 08:26:51;;;;;;;3.90;2.55;;;;;;;;;;5022454;28;20041;-45
2022/06/19 08:29:17;;;;;;;4.57;2.47;;;;;;;;;;5020561;28;20025;-46
2022/06/19 08:31:43;;;;;;;4.10;2.63;;;;;;;;;;5016934;28;20371;-44
2022/06/19 08:34:09;;;;;;;3.85;2.70;;;;;;;;;;5023536;28;20057;-45
2022/06/19 08:36:36;;;;;;;5.45;2.70;;;;;;;;;;5026066;28;20025;-45
2022/06/19 08:39:05;;;;;;;5.30;2.80;;;;;;;;;;5025150;28;20029;-46
2022/06/19 08:41:43;;;;;;;4.15;2.75;;;;;;;;;;5024400;28;20033;-45
2022/06/19 08:44:21;;;;;;;4.55;2.25;;;;;;;;;;5026972;28;20493;-45
2022/06/19 08:47:09;;;;;;;7.03;2.90;;;;;;;;;;5027498;28;20049;-47
2022/06/19 08:49:44;;;;;;;6.97;2.83;;;;;;;;;;5006100;28;20047;-47
2022/06/19 08:52:24;;;;;;;5.13;2.63;;;;;;;;;;5005755;28;21095;-46
2022/06/19 08:54:57;;;;;;;3.47;2.50;;;;;;;;;;5005020;28;20124;-44
2022/06/19 08:57:38;;;;;;;4.90;2.72;;;;;;;;;;5002894;28;20499;-46
2022/06/19 09:00:16;;;;;;;8.27;3.03;;;;;;;;;;5004145;28;20041;-45
2022/06/19 09:02:57;;;;;;;8.85;2.40;;;;;;;;;;5014809;28;20049;-45
2022/06/19 09:08:19;;;;;;;4.72;2.80;;;;;;;;;;5003995;28;20604;-44
2022/06/19 09:11:03;;;;;;;3.63;2.55;;;;;;;;;;5007384;28;20117;-45
2022/06/19 09:13:50;;;;;;;9.10;2.97;;;;;;;;;;5015426;28;20034;-47
2022/06/19 09:16:40;;;;;;;6.53;2.65;;;;;;;;;;5008005;28;20048;-45
2022/06/19 09:19:30;;;;;;;6.43;2.90;;;;;;;;;;5007912;28;20062;-46
2022/06/19 09:22:17;;;;;;;6.68;2.90;;;;;;;;;;5009835;28;20033;-45
2022/06/19 09:25:12;;;;;;;3.05;2.33;;;;;;;;;;5006759;28;20117;-45
2022/06/19 09:27:50;;;;;;;4.43;3.00;;;;;;;;;;5026036;28;20041;-45
2022/06/19 09:30:46;;;;;;;6.93;2.78;;;;;;;;;;5033749;28;20033;-45
2022/06/19 09:33:29;;;;;;;6.82;2.58;;;;;;;;;;5009437;28;20044;-46
2022/06/19 09:36:00;;;;;;;7.32;2.53;;;;;;;;;;5011790;28;20033;-45
2022/06/19 09:38:30;;;;;;;;;;;;;;;;;;5013868;28;20053;-45
2022/06/19 09:41:00;;;;;;;3.70;2.47;;;;;;;;;;5009671;28;19967;-48
2022/06/19 09:43:52;;;;;;;7.80;2.60;;;;;;;;;;5011654;28;20469;-45
2022/06/19 09:46:25;;;;;;;5.05;2.75;;;;;;;;;;5011322;28;20030;-49
2022/06/19 09:49:06;;;;;;;8.10;2.85;;;;;;;;;;5011343;28;20679;-45
2022/06/19 09:51:44;;;;;;;8.32;2.90;;;;;;;;;;5005093;28;20049;-46
2022/06/19 09:54:14;;;;;;;7.38;2.80;;;;;;;;;;5012854;28;20045;-45
2022/06/19 09:57:00;;;;;;;4.38;2.38;;;;;;;;;;5010899;28;20203;-45
2022/06/19 09:59:41;;;;;;;9.27;2.60;;;;;;;;;;5014755;28;20033;-45
2022/06/19 10:02:37;;;;;;;6.65;2.78;;;;;;;;;;5013202;28;20037;-45
2022/06/19 10:05:30;;;;;;;6.22;2.70;;;;;;;;;;5011523;28;20120;-46
2022/06/19 10:08:04;;;;;;;4.55;2.72;;;;;;;;;;5010485;28;20054;-47
2022/06/19 10:10:30;;;;;;;4.80;2.85;;;;;;;;;;5021910;28;20033;-45
2022/06/19 10:12:59;;;;;;;3.85;2.33;;;;;;;;;;5032383;28;20098;-45
2022/06/19 10:15:35;;;;;;;5.15;2.65;;;;;;;;;;5031342;28;20030;-45
2022/06/19 10:18:06;;;;;;;8.80;2.88;;;;;;;;;;5031866;28;20033;-47
2022/06/19 10:21:04;;;;;;;7.17;2.67;;;;;;;;;;5030583;28;20025;-45
2022/06/19 10:23:53;;;;;;;8.57;3.08;;;;;;;;;;5032367;28;20282;-45
2022/06/19 10:26:33;;;;;;;5.65;3.17;;;;;;;;;;5033210;28;20096;-45
2022/06/19 10:29:10;;;;;;;7.97;2.97;;;;;;;;;;5029193;28;20037;-45
2022/06/19 10:31:45;;;;;;;6.80;2.83;;;;;;;;;;5033583;28;21229;-46
2022/06/19 10:34:33;;;;;;;6.95;2.90;;;;;;;;;;5030603;28;20029;-44
2022/06/19 10:37:16;;;;;;;4.43;2.88;;;;;;;;;;5029479;28;20034;-46
2022/06/19 10:40:12;;;;;;;7.53;2.85;;;;;;;;;;5027916;28;20449;-45
2022/06/19 10:43:00;;;;;;;8.35;2.80;;;;;;;;;;5023970;28;20029;-46
2022/06/19 10:45:26;;;;;;;7.72;2.65;;;;;;;;;;5032573;28;20052;-47
2022/06/19 10:48:10;;;;;;;6.28;2.72;;;;;;;;;;5027196;28;20071;-45
2022/06/19 10:50:59;;;;;;;5.57;3.10;;;;;;;;;;5027276;28;20060;-45
2022/06/19 10:53:30;;;;;;;10.18;3.33;;;;;;;;;;5027656;28;20394;-48
2022/06/19 10:56:27;;;;;;;6.68;2.80;;;;;;;;;;5022850;28;20095;-48
2022/06/19 10:58:55;;;;;;;15.05;3.22;;;;;;;;;;5037491;28;20041;-47
2022/06/19 11:04:18;;;;;;;5.78;3.00;;;;;;;;;;5030820;28;20029;-45
2022/06/19 11:07:03;;;;;;;6.07;3.40;;;;;;;;;;5027297;28;21461;-46
2022/06/19 11:09:37;;;;;;;5.93;3.00;;;;;;;;;;5020320;28;20170;-45
2022/06/19 11:12:26;;;;;;;4.32;2.85;;;;;;;;;;5028142;28;20036;-48
2022/06/19 11:14:59;;;;;;;7.03;3.53;;;;;;;;;;5031308;28;20060;-47
2022/06/19 11:17:31;;;;;;;3.97;2.80;;;;;;;;;;5026043;28;20029;-45
2022/06/19 11:19:57;;;;;;;6.10;3.13;;;;;;;;;;5032743;28;20690;-45
2022/06/19 11:22:31;;;;;;;11.18;3.13;;;;;;;;;;5022616;28;20109;-45
2022/06/19 11:25:23;;;;;;;6.68;3.10;;;;;;;;;;5026351;28;20036;-46
2022/06/19 11:27:50;;;;;;;;;;;;;;;;;;5031297;28;20067;-45
2022/06/19 11:30:24;;;;;;;7.88;2.78;;;;;;;;;;5030075;28;20020;-45
2022/06/19 11:32:50;;;;;;;7.68;3.25;;;;;;;;;;5031790;28;20026;-45
2022/06/19 11:35:16;;;;;;;7.82;2.88;;;;;;;;;;5030774;28;20136;-46
2022/06/19 11:37:51;;;;;;;4.80;3.28;;;;;;;;;;5034351;28;20037;-46
2022/06/19 11:40:27;;;;;;;5.43;3.85;;;;;;;;;;5024273;28;20032;-45
2022/06/19 11:42:59;;;;;;;5.72;3.80;;;;;;;;;;5027875;28;20050;-44
2022/06/19 11:45:24;;;;;;;;;;;;;;;;;;5032988;28;20116;-47
2022/06/19 11:48:01;;;;;;;11.10;3.58;;;;;;;;;;5035762;28;19917;-45
2022/06/19 11:50:33;;;;;;;10.38;3.58;;;;;;;;;;5031720;28;20029;-47
2022/06/19 11:53:08;;;;;;;9.07;3.90;;;;;;;;;;5035611;28;20071;-45
2022/06/19 11:56:15;;;;;;;5.10;3.53;;;;;;;;;;5031895;28;20410;-50
2022/06/19 11:58:45;;;;;;;6.30;3.55;;;;;;;;;;5016020;28;20045;-45
2022/06/19 12:01:16;;;;;;;5.15;3.53;;;;;;;;;;4994918;28;20463;-45
2022/06/19 12:03:55;;;;;;;6.15;3.58;;;;;;;;;;5015590;28;20527;-45
2022/06/19 12:06:41;;;;;;;5.05;3.58;;;;;;;;;;5015098;28;20554;-45
2022/06/19 12:09:19;;;;;;;5.10;2.90;;;;;;;;;;5007753;28;20533;-45
2022/06/19 12:11:57;;;;;;;11.32;3.30;;;;;;;;;;5013386;28;20021;-48
2022/06/19 12:14:31;;;;;;;7.43;3.38;;;;;;;;;;5010405;28;20560;-45
2022/06/19 12:17:16;;;;;;;7.18;3.22;;;;;;;;;;5014023;28;20573;-46
2022/06/19 12:20:08;;;;;;;12.48;3.90;;;;;;;;;;5008382;28;20109;-45
2022/06/19 12:22:52;;;;;;;8.95;3.50;;;;;;;;;;4938020;29;20052;-46
2022/06/19 12:25:27;;;;;;;7.55;3.60;;;;;;;;;;4935647;29;20036;-45
2022/06/19 12:27:56;;;;;;;4.47;3.28;;;;;;;;;;4934753;29;20130;-45
2022/06/19 12:30:33;;;;;;;6.10;3.47;;;;;;;;;;4932103;29;20048;-45
2022/06/19 12:33:04;;;;;;;4.65;3.40;;;;;;;;;;4930869;29;20048;-45
2022/06/19 12:35:36;;;;;;;5.75;3.55;;;;;;;;;;4943301;28;20525;-44
2022/06/19 12:38:05;;;;;;;12.45;3.33;;;;;;;;;;4957125;28;20046;-45
2022/06/19 12:41:00;;;;;;;11.52;4.05;;;;;;;;;;4951588;28;20137;-46
2022/06/19 12:43:59;;;;;;;10.77;3.45;;;;;;;;;;4953697;28;20082;-45
2022/06/19 12:46:43;;;;;;;11.73;3.53;;;;;;;;;;4943005;28;20042;-45
2022/06/19 12:49:26;;;;;;;6.90;3.20;;;;;;;;;;4949419;28;20038;-47
2022/06/19 12:52:33;;;;;;;5.90;3.45;;;;;;;;;;4953872;28;20432;-45
2022/06/19 12:55:05;;;;;;;7.32;3.30;;;;;;;;;;4948758;28;20054;-46
2022/06/19 12:57:54;;;;;;;11.88;3.17;;;;;;;;;;4953935;28;20046;-47
2022/06/19 13:00:34;;;;;;;6.30;3.45;;;;;;;;;;4993138;28;20084;-44
2022/06/19 13:03:21;;;;;;;19.50;3.22;;;;;;;;;;5009151;28;20031;-47
2022/06/19 13:06:02;;;;;;;4.35;2.95;;;;;;;;;;5010313;28;20185;-45
2022/06/19 13:08:55;;;;;;;7.85;3.25;;;;;;;;;;5009427;28;20038;-46
2022/06/19 13:11:28;;;;;;;13.60;2.90;;;;;;;;;;5008671;28;20522;-45
2022/06/19 13:14:24;;;;;;;7.93;3.38;;;;;;;;;;5011622;28;20044;-45
2022/06/19 13:17:16;;;;;;;4.35;2.88;;;;;;;;;;5016328;28;20034;-45
2022/06/19 13:20:00;;;;;;;;;;;;;;;;;;5013549;28;20041;-44
2022/06/19 13:22:26;;;;;;;12.07;3.47;;;;;;;;;;5011824;28;19921;-45
2022/06/19 13:24:59;;;;;;;4.53;3.13;;;;;;;;;;5005576;28;20092;-45
2022/06/19 13:27:40;;;;;;;5.50;3.20;;;;;;;;;;5004523;28;20088;-46
2022/06/19 13:30:19;;;;;;;6.55;2.88;;;;;;;;;;5006659;28;20415;-45
2022/06/19 13:33:05;;;;;;;9.18;3.50;;;;;;;;;;5034539;28;20393;-45
2022/06/19 13:35:54;;;;;;;3.78;2.85;;;;;;;;;;5033316;28;20165;-45
2022/06/19 13:38:32;;;;;;;4.22;2.80;;;;;;;;;;5029060;28;25048;-45
2022/06/19 13:41:30;;;;;;;8.35;2.97;;;;;;;;;;5031232;28;20675;-46
2022/06/19 13:44:28;;;;;;;6.80;3.10;;;;;;;;;;5031610;28;20044;-45
2022/06/19 13:46:56;;;;;;;5.32;2.60;;;;;;;;;;5024859;28;20121;-49
2022/06/19 13:49:26;;;;;;;5.65;2.75;;;;;;;;;;5029517;28;20038;-45
2022/06/19 13:52:10;;;;;;;9.85;3.03;;;;;;;;;;5030260;28;20041;-47
2022/06/19 13:55:11;;;;;;;8.40;3.05;;;;;;;;;;5018672;28;20060;-45
2022/06/19 13:57:45;;;;;;;8.33;2.93;;;;;;;;;;5028840;28;20045;-45
2022/06/19 14:00:29;;;;;;;8.27;3.28;;;;;;;;;;5029613;28;20135;-45
2022/06/19 14:03:23;;;;;;;8.23;2.90;;;;;;;;;;5025894;28;20057;-45
2022/06/19 14:05:51;;;;;;;5.63;2.92;;;;;;;;;;5031226;28;20033;-45
2022/06/19 14:08:37;;;;;;;6.15;2.85;;;;;;;;;;5031006;28;20033;-50
2022/06/19 14:11:17;;;;;;;3.03;2.38;;;;;;;;;;5032154;28;20037;-47
2022/06/19 14:13:55;;;;;;;5.75;2.72;;;;;;;;;;5033502;28;20525;-47
2022/06/19 14:16:33;;;;;;;4.85;2.85;;;;;;;;;;5031311;28;20037;-45
2022/06/19 14:19:15;;;;;;;6.07;3.05;;;;;;;;;;5031240;28;20397;-44
2022/06/19 14:22:03;;;;;;;4.65;2.50;;;;;;;;;;5027660;28;20036;-45
2022/06/19 14:24:35;;;;;;;3.53;2.75;;;;;;;;;;5025226;28;20032;-47
2022/06/19 14:27:28;;;;;;;5.18;2.60;;;;;;;;;;5027414;28;20037;-45
2022/06/19 14:30:00;;;;;;;6.20;2.67;;;;;;;;;;5026937;28;20026;-45
2022/06/19 14:32:51;;;;;;;4.13;2.50;;;;;;;;;;5025816;28;20025;-45
2022/06/19 14:35:19;;;;;;;6.33;2.60;;;;;;;;;;5026460;28;20120;-44
2022/06/19 14:38:00;;;;;;;6.53;2.72;;;;;;;;;;5025337;28;20025;-45
2022/06/19 14:40:29;;;;;;;5.50;2.75;;;;;;;;;;5028457;28;20021;-46
2022/06/19 14:42:58;;;;;;;7.43;2.55;;;;;;;;;;5030470;28;20405;-45
2022/06/19 14:45:40;;;;;;;4.05;2.40;;;;;;;;;;5023442;28;20032;-45
2022/06/19 14:48:24;;;;;;;5.10;2.45;;;;;;;;;;5031065;28;20052;-47
2022/06/19 14:51:01;;;;;;;4.57;2.10;;;;;;;;;;5031542;28;20018;-45
2022/06/19 14:53:46;;;;;;;4.70;2.53;;;;;;;;;;5028515;28;20037;-42
2022/06/19 14:56:30;;;;;;;5.85;2.35;;;;;;;;;;5028191;28;20738;-45
2022/06/19 14:58:56;;;;;;;5.80;2.50;;;;;;;;;;5036499;28;20036;-45
2022/06/19 15:01:30;;;;;;;4.13;2.40;;;;;;;;;;5031414;28;20145;-46
2022/06/19 15:04:06;;;;;;;3.22;2.33;;;;;;;;;;5029126;28;20033;-46
2022/06/19 15:06:45;;;;;;;6.95;2.65;;;;;;;;;;5027323;28;20121;-44
2022/06/19 15:09:25;;;;;;;3.20;2.05;;;;;;;;;;5024831;28;20037;-44
2022/06/19 15:11:52;;;;;;;5.05;2.70;;;;;;;;;;5030780;28;20033;-45
2022/06/19 15:14:26;;;;;;;5.35;2.33;;;;;;;;;;5024830;28;20414;-45
2022/06/19 15:17:01;;;;;;;3.13;2.20;;;;;;;;;;5029250;28;20099;-45
2022/06/19 15:19:44;;;;;;;3.72;2.13;;;;;;;;;;5028377;28;20140;-45
2022/06/19 15:22:27;;;;;;;6.18;2.47;;;;;;;;;;5023185;28;20151;-45
2022/06/19 15:24:53;;;;;;;3.80;1.88;;;;;;;;;;5027393;28;20033;-45
2022/06/19 15:27:22;;;;;;;5.90;2.38;;;;;;;;;;5023755;28;20036;-44
2022/06/19 15:29:56;;;;;;;4.00;2.22;;;;;;;;;;5030584;28;20844;-45